sensor_id;sensor_type;location;lat;lon;timestamp;pressure;altitude;pressure_sealevel;temperature;humidity
8051;BME280;4068;42.158;24.732;2022-07-21T00:00:37;99709.63;;;20.31;78.92
8051;BME280;4068;42.158;24.732;2022-07-21T00:03:02;99710.44;;;20.32;78.45
8051;BME280;4068;42.158;24.732;2022-07-21T00:05:28;99700.53;;;20.32;78.07
8051;BME280;4068;42.158;24.732;2022-07-21T00:07:53;99698.47;;;20.34;77.73
8051;BME280;4068;42.158;24.732;2022-07-21T00:10:22;99702.38;;;20.32;78.28
8051;BME280;4068;42.158;24.732;2022-07-21T00:12:47;99703.41;;;20.31;77.63
8051;BME280;4068;42.158;24.732;2022-07-21T00:15:16;99696.16;;;20.31;77.13
8051;BME280;4068;42.158;24.732;2022-07-21T00:17:41;99702.28;;;20.25;77.56
8051;BME280;4068;42.158;24.732;2022-07-21T00:20:08;99702.94;;;20.27;76.70
8051;BME280;4068;42.158;24.732;2022-07-21T00:22:34;99699.78;;;20.24;76.75
8051;BME280;4068;42.158;24.732;2022-07-21T00:25:00;99696.06;;;20.25;76.52
8051;BME280;4068;42.158;24.732;2022-07-21T00:27:25;99693.72;;;20.22;77.45
8051;BME280;4068;42.158;24.732;2022-07-21T00:29:51;99698.94;;;20.23;76.58
8051;BME280;4068;42.158;24.732;2022-07-21T00:32:17;99676.00;;;20.12;76.94
8051;BME280;4068;42.158;24.732;2022-07-21T00:34:43;99696.78;;;20.18;77.41
8051;BME280;4068;42.158;24.732;2022-07-21T00:37:11;99693.63;;;20.15;77.75
8051;BME280;4068;42.158;24.732;2022-07-21T00:39:37;99685.34;;;20.16;77.73
8051;BME280;4068;42.158;24.732;2022-07-21T00:42:03;99677.47;;;20.15;77.29
8051;BME280;4068;42.158;24.732;2022-07-21T00:44:29;99676.81;;;20.13;77.01
8051;BME280;4068;42.158;24.732;2022-07-21T00:46:54;99691.47;;;20.10;77.65
8051;BME280;4068;42.158;24.732;2022-07-21T00:49:20;99657.66;;;19.93;79.02
8051;BME280;4068;42.158;24.732;2022-07-21T00:51:47;99685.69;;;19.98;78.58
8051;BME280;4068;42.158;24.732;2022-07-21T00:54:16;99690.00;;;19.85;79.28
8051;BME280;4068;42.158;24.732;2022-07-21T00:56:42;99687.72;;;19.73;80.32
8051;BME280;4068;42.158;24.732;2022-07-21T00:59:08;99661.47;;;19.52;80.78
8051;BME280;4068;42.158;24.732;2022-07-21T01:01:35;99690.75;;;19.70;80.25
8051;BME280;4068;42.158;24.732;2022-07-21T01:04:00;99682.09;;;19.60;80.76
8051;BME280;4068;42.158;24.732;2022-07-21T01:06:26;99679.50;;;19.66;80.23
8051;BME280;4068;42.158;24.732;2022-07-21T01:08:52;99689.84;;;19.55;81.07
8051;BME280;4068;42.158;24.732;2022-07-21T01:11:20;99688.34;;;19.52;81.09
8051;BME280;4068;42.158;24.732;2022-07-21T01:13:46;99687.09;;;19.40;81.10
8051;BME280;4068;42.158;24.732;2022-07-21T01:16:11;99689.63;;;19.41;81.31
8051;BME280;4068;42.158;24.732;2022-07-21T01:18:37;99692.13;;;19.43;81.19
8051;BME280;4068;42.158;24.732;2022-07-21T01:21:20;99694.63;;;19.44;81.24
8051;BME280;4068;42.158;24.732;2022-07-21T01:23:52;99677.53;;;19.37;80.84
8051;BME280;4068;42.158;24.732;2022-07-21T01:26:18;99698.88;;;19.62;78.93
8051;BME280;4068;42.158;24.732;2022-07-21T01:28:43;99694.50;;;19.61;78.33
8051;BME280;4068;42.158;24.732;2022-07-21T01:31:08;99690.75;;;19.70;77.59
8051;BME280;4068;42.158;24.732;2022-07-21T01:33:34;99689.56;;;19.73;76.82
8051;BME280;4068;42.158;24.732;2022-07-21T01:35:59;99693.44;;;19.70;76.85
8051;BME280;4068;42.158;24.732;2022-07-21T01:38:25;99687.06;;;19.71;76.82
8051;BME280;4068;42.158;24.732;2022-07-21T01:41:09;99685.50;;;19.77;76.09
8051;BME280;4068;42.158;24.732;2022-07-21T01:43:53;99679.81;;;19.72;75.90
8051;BME280;4068;42.158;24.732;2022-07-21T01:46:18;99676.94;;;19.73;75.42
8051;BME280;4068;42.158;24.732;2022-07-21T01:48:44;99668.56;;;19.68;75.21
8051;BME280;4068;42.158;24.732;2022-07-21T01:51:10;99678.50;;;19.67;75.29
8051;BME280;4068;42.158;24.732;2022-07-21T01:53:36;99665.78;;;19.61;75.59
8051;BME280;4068;42.158;24.732;2022-07-21T01:56:02;99676.00;;;19.66;75.82
8051;BME280;4068;42.158;24.732;2022-07-21T01:58:27;99671.81;;;19.63;75.29
8051;BME280;4068;42.158;24.732;2022-07-21T02:00:54;99649.88;;;19.52;75.07
8051;BME280;4068;42.158;24.732;2022-07-21T02:03:19;99643.03;;;19.41;75.93
8051;BME280;4068;42.158;24.732;2022-07-21T02:05:45;99669.44;;;19.45;76.74
8051;BME280;4068;42.158;24.732;2022-07-21T02:08:11;99656.22;;;19.36;76.57
8051;BME280;4068;42.158;24.732;2022-07-21T02:10:36;99654.88;;;19.31;77.48
8051;BME280;4068;42.158;24.732;2022-07-21T02:13:02;99667.94;;;19.43;77.34
8051;BME280;4068;42.158;24.732;2022-07-21T02:15:29;99664.75;;;19.39;77.89
8051;BME280;4068;42.158;24.732;2022-07-21T02:17:55;99675.03;;;19.36;78.94
8051;BME280;4068;42.158;24.732;2022-07-21T02:20:20;99673.53;;;19.33;78.07
8051;BME280;4068;42.158;24.732;2022-07-21T02:22:46;99670.16;;;19.31;78.81
8051;BME280;4068;42.158;24.732;2022-07-21T02:25:12;99675.38;;;19.33;78.50
8051;BME280;4068;42.158;24.732;2022-07-21T02:27:38;99681.59;;;19.33;78.47
8051;BME280;4068;42.158;24.732;2022-07-21T02:30:04;99668.91;;;19.19;79.17
8051;BME280;4068;42.158;24.732;2022-07-21T02:32:30;99667.22;;;19.18;79.54
8051;BME280;4068;42.158;24.732;2022-07-21T02:34:56;99668.22;;;19.17;79.13
8051;BME280;4068;42.158;24.732;2022-07-21T02:37:21;99664.22;;;19.12;79.09
8051;BME280;4068;42.158;24.732;2022-07-21T02:39:47;99651.88;;;18.95;79.88
8051;BME280;4068;42.158;24.732;2022-07-21T02:42:13;99655.44;;;18.95;80.13
8051;BME280;4068;42.158;24.732;2022-07-21T02:44:38;99669.50;;;18.97;80.26
8051;BME280;4068;42.158;24.732;2022-07-21T02:47:04;99664.50;;;18.94;80.23
8051;BME280;4068;42.158;24.732;2022-07-21T02:49:29;99671.56;;;18.87;81.06
8051;BME280;4068;42.158;24.732;2022-07-21T02:51:55;99663.50;;;18.79;81.77
8051;BME280;4068;42.158;24.732;2022-07-21T02:54:20;99668.09;;;18.70;82.27
8051;BME280;4068;42.158;24.732;2022-07-21T02:56:46;99664.41;;;18.71;82.49
8051;BME280;4068;42.158;24.732;2022-07-21T02:59:11;99670.59;;;18.72;82.38
8051;BME280;4068;42.158;24.732;2022-07-21T03:01:36;99667.72;;;18.73;82.36
8051;BME280;4068;42.158;24.732;2022-07-21T03:04:02;99670.41;;;18.73;82.88
8051;BME280;4068;42.158;24.732;2022-07-21T03:06:27;99662.34;;;18.82;81.62
8051;BME280;4068;42.158;24.732;2022-07-21T03:08:53;99636.06;;;18.60;81.71
8051;BME280;4068;42.158;24.732;2022-07-21T03:11:18;99666.84;;;18.81;81.34
8051;BME280;4068;42.158;24.732;2022-07-21T03:13:44;99666.84;;;18.81;81.05
8051;BME280;4068;42.158;24.732;2022-07-21T03:16:09;99663.16;;;18.82;80.99
8051;BME280;4068;42.158;24.732;2022-07-21T03:18:35;99652.94;;;18.77;81.38
8051;BME280;4068;42.158;24.732;2022-07-21T03:21:00;99664.16;;;18.81;82.18
8051;BME280;4068;42.158;24.732;2022-07-21T03:23:25;99665.03;;;18.82;82.60
8051;BME280;4068;42.158;24.732;2022-07-21T03:25:51;99663.84;;;18.84;83.38
8051;BME280;4068;42.158;24.732;2022-07-21T03:28:17;99660.97;;;18.86;84.17
8051;BME280;4068;42.158;24.732;2022-07-21T03:30:42;99666.69;;;18.91;84.54
8051;BME280;4068;42.158;24.732;2022-07-21T03:33:08;99663.00;;;18.92;84.09
8051;BME280;4068;42.158;24.732;2022-07-21T03:35:33;99642.81;;;18.96;84.16
8051;BME280;4068;42.158;24.732;2022-07-21T03:38:01;99658.22;;;19.34;83.88
8051;BME280;4068;42.158;24.732;2022-07-21T03:40:30;99662.28;;;19.84;80.58
8051;BME280;4068;42.158;24.732;2022-07-21T03:42:59;99665.16;;;20.35;77.93
8051;BME280;4068;42.158;24.732;2022-07-21T03:45:26;99669.25;;;20.61;76.71
8051;BME280;4068;42.158;24.732;2022-07-21T03:48:13;99664.78;;;20.83;75.80
8051;BME280;4068;42.158;24.732;2022-07-21T03:50:41;99666.09;;;21.02;73.44
8051;BME280;4068;42.158;24.732;2022-07-21T03:53:07;99660.94;;;21.08;73.44
8051;BME280;4068;42.158;24.732;2022-07-21T03:55:34;99669.41;;;21.19;73.50
8051;BME280;4068;42.158;24.732;2022-07-21T03:58:03;99654.19;;;21.33;72.06
8051;BME280;4068;42.158;24.732;2022-07-21T04:00:35;99662.03;;;21.65;70.66
8051;BME280;4068;42.158;24.732;2022-07-21T04:03:01;99675.06;;;21.83;68.88
8051;BME280;4068;42.158;24.732;2022-07-21T04:05:27;99666.28;;;22.02;67.99
8051;BME280;4068;42.158;24.732;2022-07-21T04:07:54;99661.19;;;22.14;67.27
8051;BME280;4068;42.158;24.732;2022-07-21T04:10:23;99646.66;;;22.15;66.57
8051;BME280;4068;42.158;24.732;2022-07-21T04:12:49;99675.53;;;22.43;65.19
8051;BME280;4068;42.158;24.732;2022-07-21T04:15:15;99678.50;;;22.48;64.44
8051;BME280;4068;42.158;24.732;2022-07-21T04:17:41;99672.94;;;22.56;65.13
8051;BME280;4068;42.158;24.732;2022-07-21T04:20:08;99659.44;;;22.56;65.23
8051;BME280;4068;42.158;24.732;2022-07-21T04:22:34;99675.31;;;22.73;65.39
8051;BME280;4068;42.158;24.732;2022-07-21T04:25:00;99644.84;;;22.51;65.67
8051;BME280;4068;42.158;24.732;2022-07-21T04:27:26;99671.94;;;22.64;65.78
8051;BME280;4068;42.158;24.732;2022-07-21T04:29:52;99671.50;;;22.61;65.59
8051;BME280;4068;42.158;24.732;2022-07-21T04:32:17;99664.22;;;22.61;65.32
8051;BME280;4068;42.158;24.732;2022-07-21T04:34:43;99666.25;;;22.52;65.58
8051;BME280;4068;42.158;24.732;2022-07-21T04:37:08;99666.53;;;22.64;65.67
8051;BME280;4068;42.158;24.732;2022-07-21T04:39:34;99644.50;;;22.61;65.42
8051;BME280;4068;42.158;24.732;2022-07-21T04:41:59;99650.09;;;22.59;66.26
8051;BME280;4068;42.158;24.732;2022-07-21T04:44:25;99662.81;;;22.65;65.62
8051;BME280;4068;42.158;24.732;2022-07-21T04:46:50;99657.00;;;22.68;64.49
8051;BME280;4068;42.158;24.732;2022-07-21T04:49:16;99652.91;;;22.79;64.77
8051;BME280;4068;42.158;24.732;2022-07-21T04:51:41;99650.44;;;22.91;64.34
8051;BME280;4068;42.158;24.732;2022-07-21T04:54:07;99658.16;;;22.94;64.17
8051;BME280;4068;42.158;24.732;2022-07-21T04:56:32;99659.88;;;23.08;63.75
8051;BME280;4068;42.158;24.732;2022-07-21T04:59:00;99632.63;;;23.10;63.65
8051;BME280;4068;42.158;24.732;2022-07-21T05:01:26;99651.03;;;23.35;62.60
8051;BME280;4068;42.158;24.732;2022-07-21T05:03:51;99664.19;;;23.58;62.37
8051;BME280;4068;42.158;24.732;2022-07-21T05:06:17;99661.72;;;23.70;61.51
8051;BME280;4068;42.158;24.732;2022-07-21T05:08:42;99663.84;;;23.94;60.18
8051;BME280;4068;42.158;24.732;2022-07-21T05:11:07;99667.81;;;24.12;58.44
8051;BME280;4068;42.158;24.732;2022-07-21T05:13:33;99661.31;;;24.20;58.27
8051;BME280;4068;42.158;24.732;2022-07-21T05:15:58;99642.56;;;24.25;59.06
8051;BME280;4068;42.158;24.732;2022-07-21T05:18:24;99658.56;;;24.46;58.37
8051;BME280;4068;42.158;24.732;2022-07-21T05:20:49;99658.59;;;24.60;56.47
8051;BME280;4068;42.158;24.732;2022-07-21T05:23:15;99655.22;;;24.71;57.02
8051;BME280;4068;42.158;24.732;2022-07-21T05:25:40;99645.00;;;24.67;56.28
8051;BME280;4068;42.158;24.732;2022-07-21T05:28:06;99649.16;;;24.76;56.53
8051;BME280;4068;42.158;24.732;2022-07-21T05:30:31;99658.88;;;24.97;56.01
8051;BME280;4068;42.158;24.732;2022-07-21T05:32:57;99659.06;;;24.95;56.48
8051;BME280;4068;42.158;24.732;2022-07-21T05:35:22;99658.22;;;25.08;56.59
8051;BME280;4068;42.158;24.732;2022-07-21T05:37:49;99668.56;;;25.18;56.14
8051;BME280;4068;42.158;24.732;2022-07-21T05:40:15;99664.34;;;25.29;55.85
8051;BME280;4068;42.158;24.732;2022-07-21T05:42:40;99643.47;;;25.29;55.55
8051;BME280;4068;42.158;24.732;2022-07-21T05:45:07;99655.06;;;25.50;55.13
8051;BME280;4068;42.158;24.732;2022-07-21T05:47:32;99633.81;;;25.47;55.97
8051;BME280;4068;42.158;24.732;2022-07-21T05:49:58;99640.72;;;25.43;56.66
8051;BME280;4068;42.158;24.732;2022-07-21T05:52:24;99654.53;;;25.66;56.00
8051;BME280;4068;42.158;24.732;2022-07-21T05:54:49;99656.31;;;25.79;55.69
8051;BME280;4068;42.158;24.732;2022-07-21T05:57:14;99631.50;;;25.76;55.36
8051;BME280;4068;42.158;24.732;2022-07-21T05:59:40;99648.59;;;26.08;55.74
8051;BME280;4068;42.158;24.732;2022-07-21T06:02:06;99651.78;;;26.24;55.92
8051;BME280;4068;42.158;24.732;2022-07-21T06:04:31;99647.81;;;26.45;55.21
8051;BME280;4068;42.158;24.732;2022-07-21T06:06:57;99646.53;;;26.66;54.47
8051;BME280;4068;42.158;24.732;2022-07-21T06:09:22;99655.25;;;26.93;53.75
8051;BME280;4068;42.158;24.732;2022-07-21T06:11:48;99649.09;;;27.16;51.27
8051;BME280;4068;42.158;24.732;2022-07-21T06:14:13;99616.88;;;27.13;48.39
8051;BME280;4068;42.158;24.732;2022-07-21T06:16:39;99643.41;;;27.36;49.19
8051;BME280;4068;42.158;24.732;2022-07-21T06:19:05;99618.44;;;27.40;48.06
8051;BME280;4068;42.158;24.732;2022-07-21T06:21:32;99634.97;;;27.68;47.28
8051;BME280;4068;42.158;24.732;2022-07-21T06:23:57;99614.84;;;27.69;46.76
8051;BME280;4068;42.158;24.732;2022-07-21T06:26:23;99633.59;;;28.01;44.80
8051;BME280;4068;42.158;24.732;2022-07-21T06:28:48;99634.19;;;28.15;43.07
8051;BME280;4068;42.158;24.732;2022-07-21T06:31:13;99628.25;;;28.30;41.79
8051;BME280;4068;42.158;24.732;2022-07-21T06:33:39;99627.91;;;28.38;41.63
8051;BME280;4068;42.158;24.732;2022-07-21T06:36:06;99612.03;;;28.35;42.04
8051;BME280;4068;42.158;24.732;2022-07-21T06:38:32;99612.34;;;28.51;42.06
8051;BME280;4068;42.158;24.732;2022-07-21T06:40:58;99612.13;;;28.52;40.91
8051;BME280;4068;42.158;24.732;2022-07-21T06:43:23;99614.59;;;28.66;40.87
8051;BME280;4068;42.158;24.732;2022-07-21T06:45:48;99619.69;;;28.74;40.76
8051;BME280;4068;42.158;24.732;2022-07-21T06:48:16;99617.13;;;28.96;40.24
8051;BME280;4068;42.158;24.732;2022-07-21T06:50:42;99623.97;;;29.10;39.55
8051;BME280;4068;42.158;24.732;2022-07-21T06:53:07;99610.88;;;29.13;39.23
8051;BME280;4068;42.158;24.732;2022-07-21T06:55:34;99615.38;;;29.19;39.32
8051;BME280;4068;42.158;24.732;2022-07-21T06:58:13;99611.31;;;29.21;39.38
8051;BME280;4068;42.158;24.732;2022-07-21T07:00:39;99591.88;;;29.18;39.41
8051;BME280;4068;42.158;24.732;2022-07-21T07:03:05;99612.38;;;29.32;39.60
8051;BME280;4068;42.158;24.732;2022-07-21T07:05:31;99608.91;;;29.54;39.14
8051;BME280;4068;42.158;24.732;2022-07-21T07:07:56;99602.78;;;29.64;38.47
8051;BME280;4068;42.158;24.732;2022-07-21T07:10:22;99578.75;;;29.66;39.25
8051;BME280;4068;42.158;24.732;2022-07-21T07:12:47;99587.84;;;29.83;39.47
8051;BME280;4068;42.158;24.732;2022-07-21T07:15:13;99594.88;;;29.96;39.04
8051;BME280;4068;42.158;24.732;2022-07-21T07:17:38;99592.28;;;30.06;38.88
8051;BME280;4068;42.158;24.732;2022-07-21T07:20:04;99591.72;;;30.26;37.85
8051;BME280;4068;42.158;24.732;2022-07-21T07:22:32;99558.19;;;30.14;39.03
8051;BME280;4068;42.158;24.732;2022-07-21T07:24:57;99584.59;;;30.42;36.55
8051;BME280;4068;42.158;24.732;2022-07-21T07:27:23;99577.22;;;30.43;35.96
8051;BME280;4068;42.158;24.732;2022-07-21T07:29:48;99578.13;;;30.49;35.87
8051;BME280;4068;42.158;24.732;2022-07-21T07:32:13;99586.31;;;30.49;35.72
8051;BME280;4068;42.158;24.732;2022-07-21T07:34:39;99579.00;;;30.54;35.87
8051;BME280;4068;42.158;24.732;2022-07-21T07:37:04;99570.53;;;30.56;36.35
8051;BME280;4068;42.158;24.732;2022-07-21T07:39:30;99575.88;;;30.68;35.98
8051;BME280;4068;42.158;24.732;2022-07-21T07:41:55;99568.63;;;30.78;35.95
8051;BME280;4068;42.158;24.732;2022-07-21T07:44:21;99571.97;;;30.86;36.11
8051;BME280;4068;42.158;24.732;2022-07-21T07:46:47;99567.06;;;30.88;35.56
8051;BME280;4068;42.158;24.732;2022-07-21T07:49:13;99575.38;;;30.98;35.60
8051;BME280;4068;42.158;24.732;2022-07-21T07:51:38;99564.25;;;31.05;35.44
8051;BME280;4068;42.158;24.732;2022-07-21T07:54:03;99570.69;;;31.15;35.97
8051;BME280;4068;42.158;24.732;2022-07-21T07:56:30;99561.31;;;31.11;35.43
8051;BME280;4068;42.158;24.732;2022-07-21T07:58:55;99562.28;;;31.27;35.58
8051;BME280;4068;42.158;24.732;2022-07-21T08:01:21;99552.66;;;31.25;36.06
8051;BME280;4068;42.158;24.732;2022-07-21T08:03:46;99538.25;;;31.35;35.14
8051;BME280;4068;42.158;24.732;2022-07-21T08:06:12;99528.41;;;31.39;34.94
8051;BME280;4068;42.158;24.732;2022-07-21T08:08:38;99555.72;;;31.61;34.91
8051;BME280;4068;42.158;24.732;2022-07-21T08:11:03;99550.78;;;31.58;34.86
8051;BME280;4068;42.158;24.732;2022-07-21T08:13:29;99555.03;;;31.76;34.59
8051;BME280;4068;42.158;24.732;2022-07-21T08:15:55;99550.13;;;31.83;34.80
8051;BME280;4068;42.158;24.732;2022-07-21T08:18:20;99539.75;;;31.90;35.18
8051;BME280;4068;42.158;24.732;2022-07-21T08:20:47;99548.97;;;32.16;34.67
8051;BME280;4068;42.158;24.732;2022-07-21T08:23:13;99526.50;;;32.14;34.59
8051;BME280;4068;42.158;24.732;2022-07-21T08:25:39;99545.50;;;32.37;34.63
8051;BME280;4068;42.158;24.732;2022-07-21T08:28:05;99533.19;;;32.49;34.56
8051;BME280;4068;42.158;24.732;2022-07-21T08:30:31;99539.22;;;32.46;34.39
8051;BME280;4068;42.158;24.732;2022-07-21T08:33:01;99539.31;;;32.67;34.78
8051;BME280;4068;42.158;24.732;2022-07-21T08:35:27;99541.00;;;32.83;34.01
8051;BME280;4068;42.158;24.732;2022-07-21T08:37:58;99530.91;;;32.99;33.83
8051;BME280;4068;42.158;24.732;2022-07-21T08:40:28;99531.75;;;33.15;33.02
8051;BME280;4068;42.158;24.732;2022-07-21T08:42:54;99543.81;;;33.14;33.21
8051;BME280;4068;42.158;24.732;2022-07-21T08:45:21;99540.53;;;33.12;33.52
8051;BME280;4068;42.158;24.732;2022-07-21T08:47:51;99498.75;;;32.95;33.41
8051;BME280;4068;42.158;24.732;2022-07-21T08:50:17;99526.81;;;33.23;33.64
8051;BME280;4068;42.158;24.732;2022-07-21T08:52:42;99534.78;;;33.34;33.65
8051;BME280;4068;42.158;24.732;2022-07-21T08:55:08;99526.25;;;33.36;32.63
8051;BME280;4068;42.158;24.732;2022-07-21T08:57:33;99499.63;;;33.31;32.45
8051;BME280;4068;42.158;24.732;2022-07-21T08:59:59;99526.53;;;33.55;32.95
8051;BME280;4068;42.158;24.732;2022-07-21T09:02:30;99495.19;;;33.56;32.97
8051;BME280;4068;42.158;24.732;2022-07-21T09:04:57;99472.38;;;33.50;32.83
8051;BME280;4068;42.158;24.732;2022-07-21T09:07:23;99498.16;;;33.96;32.43
8051;BME280;4068;42.158;24.732;2022-07-21T09:10:15;99505.25;;;34.12;31.18
8051;BME280;4068;42.158;24.732;2022-07-21T09:13:01;99489.84;;;34.16;30.58
8051;BME280;4068;42.158;24.732;2022-07-21T09:15:29;99490.94;;;34.15;30.36
8051;BME280;4068;42.158;24.732;2022-07-21T09:18:08;99488.94;;;34.26;30.01
8051;BME280;4068;42.158;24.732;2022-07-21T09:20:35;99488.69;;;34.33;29.71
8051;BME280;4068;42.158;24.732;2022-07-21T09:23:11;99483.19;;;34.33;29.94
8051;BME280;4068;42.158;24.732;2022-07-21T09:25:48;99490.78;;;34.51;30.33
8051;BME280;4068;42.158;24.732;2022-07-21T09:28:34;99485.03;;;34.48;29.97
8051;BME280;4068;42.158;24.732;2022-07-21T09:33:42;99491.44;;;34.83;29.82
8051;BME280;4068;42.158;24.732;2022-07-21T09:36:13;99488.56;;;34.98;29.07
8051;BME280;4068;42.158;24.732;2022-07-21T09:38:50;99469.16;;;34.74;28.62
8051;BME280;4068;42.158;24.732;2022-07-21T09:41:24;99476.78;;;34.92;28.43
8051;BME280;4068;42.158;24.732;2022-07-21T09:43:52;99481.78;;;34.85;28.86
8051;BME280;4068;42.158;24.732;2022-07-21T09:46:27;99481.38;;;35.02;28.75
8051;BME280;4068;42.158;24.732;2022-07-21T09:48:58;99483.81;;;35.09;28.62
8051;BME280;4068;42.158;24.732;2022-07-21T09:51:28;99462.81;;;35.13;29.19
8051;BME280;4068;42.158;24.732;2022-07-21T09:53:59;99474.88;;;35.22;28.54
8051;BME280;4068;42.158;24.732;2022-07-21T09:56:29;99471.31;;;35.22;29.38
8051;BME280;4068;42.158;24.732;2022-07-21T09:58:56;99452.50;;;35.29;29.85
8051;BME280;4068;42.158;24.732;2022-07-21T10:01:24;99476.84;;;35.51;29.17
8051;BME280;4068;42.158;24.732;2022-07-21T10:03:51;99485.09;;;35.51;28.63
8051;BME280;4068;42.158;24.732;2022-07-21T10:06:23;99450.44;;;35.45;28.19
8051;BME280;4068;42.158;24.732;2022-07-21T10:08:49;99457.06;;;35.44;28.46
8051;BME280;4068;42.158;24.732;2022-07-21T10:11:14;99455.03;;;35.55;28.52
8051;BME280;4068;42.158;24.732;2022-07-21T10:13:41;99460.41;;;35.41;28.98
8051;BME280;4068;42.158;24.732;2022-07-21T10:16:11;99449.28;;;35.75;28.89
8051;BME280;4068;42.158;24.732;2022-07-21T10:21:50;99443.97;;;35.84;28.21
8051;BME280;4068;42.158;24.732;2022-07-21T10:24:18;99433.16;;;35.88;28.34
8051;BME280;4068;42.158;24.732;2022-07-21T10:30:02;99416.59;;;36.12;28.27
8051;BME280;4068;42.158;24.732;2022-07-21T10:32:29;99417.97;;;36.34;28.89
8051;BME280;4068;42.158;24.732;2022-07-21T10:34:56;99426.09;;;36.44;28.26
8051;BME280;4068;42.158;24.732;2022-07-21T10:40:08;99422.78;;;36.61;26.87
8051;BME280;4068;42.158;24.732;2022-07-21T10:48:48;99423.03;;;36.45;27.34
8051;BME280;4068;42.158;24.732;2022-07-21T10:50:49;99417.75;;;36.49;26.89
8051;BME280;4068;42.158;24.732;2022-07-21T10:53:17;99418.25;;;36.51;27.02
8051;BME280;4068;42.158;24.732;2022-07-21T10:55:48;99415.19;;;36.53;27.11
8051;BME280;4068;42.158;24.732;2022-07-21T11:01:00;99406.59;;;36.54;27.74
8051;BME280;4068;42.158;24.732;2022-07-21T11:06:15;99408.25;;;36.55;27.89
8051;BME280;4068;42.158;24.732;2022-07-21T11:08:48;99402.97;;;36.59;26.89
8051;BME280;4068;42.158;24.732;2022-07-21T11:14:09;99395.41;;;36.45;26.76
8051;BME280;4068;42.158;24.732;2022-07-21T11:19:03;99390.41;;;36.09;26.92
8051;BME280;4068;42.158;24.732;2022-07-21T11:21:29;99372.34;;;35.98;27.17
8051;BME280;4068;42.158;24.732;2022-07-21T11:23:55;99387.94;;;35.89;27.12
8051;BME280;4068;42.158;24.732;2022-07-21T11:26:24;99384.44;;;35.78;27.32
8051;BME280;4068;42.158;24.732;2022-07-21T11:29:05;99377.81;;;35.79;27.52
8051;BME280;4068;42.158;24.732;2022-07-21T11:31:31;99381.97;;;36.01;27.54
8051;BME280;4068;42.158;24.732;2022-07-21T11:33:57;99371.91;;;36.10;27.57
8051;BME280;4068;42.158;24.732;2022-07-21T11:36:30;99388.09;;;36.36;26.66
8051;BME280;4068;42.158;24.732;2022-07-21T11:39:07;99351.47;;;35.92;26.60
8051;BME280;4068;42.158;24.732;2022-07-21T11:41:37;99384.72;;;36.01;26.81
8051;BME280;4068;42.158;24.732;2022-07-21T11:44:08;99378.03;;;36.26;26.87
8051;BME280;4068;42.158;24.732;2022-07-21T11:46:48;99364.53;;;36.24;26.50
8051;BME280;4068;42.158;24.732;2022-07-21T11:49:14;99377.53;;;36.43;26.44
8051;BME280;4068;42.158;24.732;2022-07-21T11:51:48;99376.94;;;36.46;26.05
8051;BME280;4068;42.158;24.732;2022-07-21T11:54:29;99379.47;;;36.42;26.15
8051;BME280;4068;42.158;24.732;2022-07-21T11:56:56;99378.50;;;36.33;26.25
8051;BME280;4068;42.158;24.732;2022-07-21T11:59:23;99360.38;;;36.46;26.47
8051;BME280;4068;42.158;24.732;2022-07-21T12:01:55;99369.81;;;36.59;26.56
8051;BME280;4068;42.158;24.732;2022-07-21T12:06:59;99350.28;;;36.88;26.27
8051;BME280;4068;42.158;24.732;2022-07-21T12:09:25;99361.59;;;37.06;25.41
8051;BME280;4068;42.158;24.732;2022-07-21T12:11:50;99364.94;;;37.03;26.34
8051;BME280;4068;42.158;24.732;2022-07-21T12:14:16;99367.78;;;37.30;27.09
8051;BME280;4068;42.158;24.732;2022-07-21T12:16:52;99356.28;;;37.51;25.69
8051;BME280;4068;42.158;24.732;2022-07-21T12:19:18;99361.63;;;37.34;25.26
8051;BME280;4068;42.158;24.732;2022-07-21T12:21:51;99357.94;;;37.24;25.41
8051;BME280;4068;42.158;24.732;2022-07-21T12:24:20;99341.13;;;37.21;25.46
8051;BME280;4068;42.158;24.732;2022-07-21T12:26:49;99354.38;;;37.38;25.87
8051;BME280;4068;42.158;24.732;2022-07-21T12:29:28;99348.44;;;37.44;25.99
8051;BME280;4068;42.158;24.732;2022-07-21T12:31:54;99344.44;;;37.37;25.20
8051;BME280;4068;42.158;24.732;2022-07-21T12:34:20;99345.03;;;37.34;24.60
8051;BME280;4068;42.158;24.732;2022-07-21T12:36:46;99350.25;;;37.35;24.57
8051;BME280;4068;42.158;24.732;2022-07-21T12:39:23;99344.69;;;37.21;24.35
8051;BME280;4068;42.158;24.732;2022-07-21T12:42:10;99350.66;;;37.14;24.83
8051;BME280;4068;42.158;24.732;2022-07-21T12:44:37;99330.06;;;37.21;24.64
8051;BME280;4068;42.158;24.732;2022-07-21T12:47:16;99340.78;;;37.08;24.91
8051;BME280;4068;42.158;24.732;2022-07-21T12:52:25;99310.81;;;37.02;24.73
8051;BME280;4068;42.158;24.732;2022-07-21T12:54:51;99328.31;;;37.11;24.45
8051;BME280;4068;42.158;24.732;2022-07-21T12:57:17;99330.50;;;37.42;24.17
8051;BME280;4068;42.158;24.732;2022-07-21T12:59:42;99313.84;;;37.33;24.71
8051;BME280;4068;42.158;24.732;2022-07-21T13:02:08;99311.75;;;37.53;24.90
8051;BME280;4068;42.158;24.732;2022-07-21T13:04:34;99316.56;;;37.75;25.10
8051;BME280;4068;42.158;24.732;2022-07-21T13:06:59;99294.09;;;37.90;24.24
8051;BME280;4068;42.158;24.732;2022-07-21T13:09:25;99305.03;;;37.95;24.49
8051;BME280;4068;42.158;24.732;2022-07-21T13:11:50;99304.84;;;37.92;24.27
8051;BME280;4068;42.158;24.732;2022-07-21T13:14:16;99288.91;;;37.75;23.98
8051;BME280;4068;42.158;24.732;2022-07-21T13:16:41;99299.03;;;37.79;24.59
8051;BME280;4068;42.158;24.732;2022-07-21T13:19:06;99303.16;;;38.05;24.31
8051;BME280;4068;42.158;24.732;2022-07-21T13:21:32;99296.16;;;38.21;23.91
8051;BME280;4068;42.158;24.732;2022-07-21T13:23:57;99298.09;;;38.21;24.64
8051;BME280;4068;42.158;24.732;2022-07-21T13:26:23;99291.53;;;38.16;24.28
8051;BME280;4068;42.158;24.732;2022-07-21T13:28:49;99291.53;;;38.16;24.35
8051;BME280;4068;42.158;24.732;2022-07-21T13:31:15;99283.19;;;38.30;24.50
8051;BME280;4068;42.158;24.732;2022-07-21T13:33:41;99290.53;;;38.58;24.13
8051;BME280;4068;42.158;24.732;2022-07-21T13:36:07;99286.53;;;38.41;24.31
8051;BME280;4068;42.158;24.732;2022-07-21T13:38:33;99267.16;;;37.82;24.73
8051;BME280;4068;42.158;24.732;2022-07-21T13:40:59;99278.28;;;38.27;24.55
8051;BME280;4068;42.158;24.732;2022-07-21T13:43:24;99270.47;;;38.29;24.79